Terminal Aerodrome Forecast
Issued by NWS

Home | Current Version | Previous Version | Text Only | Print | Product List | Glossary On
Versions: 1 2 3 4 5 6 7 8 9 10 11 12 13 14 15 16 17 18 19 20 21 22 23 24 25 26 27 28 29
000
FTUS42 KCAE 161100 AAA
TAFOGB
TAF AMD
KOGB 161158Z 1612/1712 02010G18KT P6SM SKC
     FM161300 04015G25KT P6SM SKC
     FM161700 06012KT P6SM SKC
     FM170800 02008KT P6SM FEW035=

USA.gov is the U.S. government's official web portal to all federal, state and local government web resources and services.